Aérodrome :
LOGIN :

S'inscrire | Disclaimer

   EN    FR    IT 

 










Légende :    VFR   VFR Marginal   IFR   IFR Intensif   IFR Très Intensif
Visi : 
Plafond : 
>= 8 km
>= 3000ft
5 à 8 km
1000 à 3000 ft
1500m à 5 km
500 à 1000 ft
800 à 1500m
200 à 500 ft
< 800m
< 200 ft
Symboles :   Orages  Brouillard  Fortes neiges  Fortes précipitations  Vent > 20 kt
SIGMETs :   Divers  Orages  Givrage  Turbulence  Onde Orograph.  Cendres Volcan.







- Altitude de l'aérodrome : 203 ft
- Code IATA : XMJ
- Voir les cartes d'approche


LFBM - Mont-De-Marsan

METARs EXPIRÉS :
  • 241430Z AUTO VRB04KT 9999 FEW037 OVC048 24/14 Q1021 NOSIG
  • 241400Z AUTO 34005KT 300V010 9999 BKN038 OVC046 23/14 Q1021
  • 241330Z AUTO 36005KT 320V040 9999 BKN039 OVC047 24/14 Q1021 NOSIG
  • 241300Z AUTO 31005KT 270V340 9999 OVC043 23/14 Q1021 NOSIG
  • 241230Z AUTO 32004KT 270V020 9999 FEW033 OVC042 23/14 Q1021 NOSIG
  • 241200Z AUTO VRB03KT 9999 BKN038 OVC045 23/14 Q1021 NOSIG

Prévision TAF périmée.
Pas de NOTAMs connus pour ce terrain.
1 SIGMET publié pour la FIR Bordeaux (LFBB) :
 
Orages noyés dans la masse
LFBB SIGMET 2 VALID 251800/252000 LFPW
LFBB BORDEAUX FIR/UIR EMBD TS OBS WI N4245 E00230 - N4215 E00230 - N4245 W00015 - N4315 E00030 TOP FL390 STNR NC=



MET'MAP, la Météo Aéronautique d'un coup d'oeil ! - Copyright ORBIFLY Décembre 2007 - Disclaimer

ORBIFLY MET'MAP TEAM :

Programmation & Développement : Alexandra Zaïnal
Conception & Développement : Baudouin d'Aumeries
Co-Programmation & Développement : Marc-Olivier Méhu
Soutien technique & logistique : Manuel Goepfert

Contact : metmap@orbifly.com




SOURCES & CREDITS :

   NOAA